createdAt,value
2022-08-23T00:00:56.908Z,97838.00
2022-08-23T00:05:07.427Z,97840.00
2022-08-23T00:09:01.703Z,97842.00
2022-08-23T00:13:02.825Z,97841.00
2022-08-23T00:17:06.049Z,97834.00
2022-08-23T00:21:07.359Z,97840.00
2022-08-23T00:25:11.693Z,97852.00
2022-08-23T00:29:13.709Z,97834.00
2022-08-23T00:33:14.814Z,97837.00
2022-08-23T00:37:17.212Z,97839.00
2022-08-23T00:41:18.325Z,97824.00
2022-08-23T00:45:41.680Z,97832.00
2022-08-23T00:49:46.583Z,97829.00
2022-08-23T00:53:54.931Z,97836.00
2022-08-23T00:57:56.769Z,97838.00
2022-08-23T01:02:00.242Z,97831.00
2022-08-23T01:06:14.302Z,97839.00
2022-08-23T01:10:31.135Z,97836.00
2022-08-23T01:14:48.432Z,97836.00
2022-08-23T01:18:50.468Z,97831.00
2022-08-23T01:22:58.130Z,97835.00
2022-08-23T01:27:00.118Z,97835.00
2022-08-23T01:31:02.291Z,97830.00
2022-08-23T01:35:05.852Z,97828.00
2022-08-23T01:39:07.951Z,97826.00
2022-08-23T01:43:09.346Z,97825.00
2022-08-23T01:47:10.835Z,97826.00
2022-08-23T01:51:13.528Z,97823.00
2022-08-23T01:55:15.300Z,97826.00
2022-08-23T01:59:16.524Z,97829.00
2022-08-23T02:03:17.580Z,97825.00
2022-08-23T02:07:18.910Z,97818.00
2022-08-23T02:11:22.410Z,97820.00
2022-08-23T02:15:23.390Z,97820.00
2022-08-23T02:19:25.419Z,97822.00
2022-08-23T02:23:27.594Z,97831.00
2022-08-23T02:27:29.009Z,97825.00
2022-08-23T02:31:30.415Z,97824.00
2022-08-23T02:35:33.212Z,97825.00
2022-08-23T02:39:35.397Z,97829.00
2022-08-23T02:43:40.858Z,97832.00
2022-08-23T02:47:40.254Z,97837.00
2022-08-23T02:51:41.486Z,97835.00
2022-08-23T02:55:47.301Z,97839.00
2022-08-23T02:59:48.435Z,97844.00
2022-08-23T03:03:49.529Z,97844.00
2022-08-23T03:07:50.968Z,97839.00
2022-08-23T03:11:51.984Z,97837.00
2022-08-23T03:15:53.301Z,97837.00
2022-08-23T03:19:54.435Z,97843.00
2022-08-23T03:23:55.419Z,97835.00
2022-08-23T03:27:56.323Z,97840.00
2022-08-23T03:31:58.302Z,97839.00
2022-08-23T03:36:00.914Z,97847.00
2022-08-23T03:40:04.257Z,97839.00
2022-08-23T03:44:05.737Z,97845.00
2022-08-23T03:48:06.863Z,97845.00
2022-08-23T03:52:08.793Z,97851.00
2022-08-23T03:56:10.017Z,97847.00
2022-08-23T04:00:13.177Z,97855.00
2022-08-23T04:04:14.170Z,97858.00
2022-08-23T04:08:15.182Z,97852.00
2022-08-23T04:12:18.070Z,97866.00
2022-08-23T04:16:19.562Z,97872.00
2022-08-23T04:20:20.615Z,97886.00
2022-08-23T04:24:21.608Z,97868.00
2022-08-23T04:28:23.202Z,97877.00
2022-08-23T04:32:28.087Z,97873.00
2022-08-23T04:36:30.965Z,97871.00
2022-08-23T04:40:52.004Z,97869.00
2022-08-23T04:44:53.072Z,97882.00
2022-08-23T04:48:54.486Z,97886.00
2022-08-23T04:52:55.672Z,97888.00
2022-08-23T04:56:56.738Z,97894.00
2022-08-23T05:00:59.979Z,97900.00
2022-08-23T05:05:02.521Z,97782.00
2022-08-23T05:09:04.161Z,97894.00
2022-08-23T05:13:05.152Z,97903.00
2022-08-23T05:17:06.340Z,97900.00
2022-08-23T05:21:07.368Z,97912.00
2022-08-23T05:25:09.405Z,97902.00
2022-08-23T05:29:10.649Z,97907.00
2022-08-23T05:33:11.978Z,97909.00
2022-08-23T05:37:13.375Z,97915.00
2022-08-23T05:41:16.092Z,97912.00
2022-08-23T05:45:21.802Z,97919.00
2022-08-23T05:49:21.234Z,97923.00
2022-08-23T05:53:22.400Z,97921.00
2022-08-23T05:57:23.622Z,97935.00
2022-08-23T06:01:25.471Z,97939.00
2022-08-23T06:05:27.337Z,97946.00
2022-08-23T06:09:28.237Z,97947.00
2022-08-23T06:13:30.543Z,97954.00
2022-08-23T06:17:31.981Z,97953.00
2022-08-23T06:21:33.386Z,97951.00
2022-08-23T06:25:38.048Z,97953.00
2022-08-23T06:29:39.692Z,97958.00
2022-08-23T06:33:42.264Z,97957.00
2022-08-23T06:37:43.770Z,97961.00
2022-08-23T06:41:47.705Z,97961.00
2022-08-23T06:45:52.385Z,97964.00
2022-08-23T06:49:57.483Z,97957.00
2022-08-23T06:53:57.510Z,97957.00
2022-08-23T06:58:00.714Z,97965.00
2022-08-23T07:02:04.922Z,97968.00
2022-08-23T07:06:07.411Z,97953.00
2022-08-23T07:10:09.498Z,97962.00
2022-08-23T07:14:12.888Z,97966.00
2022-08-23T07:18:14.211Z,97976.00
2022-08-23T07:22:15.624Z,97973.00
2022-08-23T07:26:17.169Z,97978.00
2022-08-23T07:30:18.501Z,97974.00
2022-08-23T07:34:20.551Z,97976.00
2022-08-23T07:38:21.658Z,97974.00
2022-08-23T07:42:24.233Z,97981.00
2022-08-23T07:46:26.116Z,97981.00
2022-08-23T07:50:30.521Z,97981.00
2022-08-23T07:54:31.659Z,97992.00
2022-08-23T07:58:33.148Z,97992.00
2022-08-23T08:02:34.243Z,97996.00
2022-08-23T08:06:41.591Z,97991.00
2022-08-23T08:10:43.202Z,97994.00
2022-08-23T08:14:45.125Z,97997.00
2022-08-23T08:18:46.277Z,98001.00
2022-08-23T08:22:50.819Z,97998.00
2022-08-23T08:26:51.511Z,98000.00
2022-08-23T08:30:52.791Z,98002.00
2022-08-23T08:34:53.934Z,97999.00
2022-08-23T08:39:00.541Z,98003.00
2022-08-23T08:43:20.218Z,98013.00
2022-08-23T08:47:49.579Z,98015.00
2022-08-23T08:51:57.250Z,98017.00
2022-08-23T08:56:02.194Z,98023.00
2022-08-23T09:00:12.481Z,98023.00
2022-08-23T09:04:14.005Z,98025.00
2022-08-23T09:08:24.774Z,98018.00
2022-08-23T09:12:49.029Z,98021.00
2022-08-23T09:16:53.562Z,98024.00
2022-08-23T09:20:55.768Z,98016.00
2022-08-23T09:24:57.901Z,98018.00
2022-08-23T09:29:02.946Z,98022.00
2022-08-23T09:33:17.329Z,98028.00
2022-08-23T09:37:23.650Z,98026.00
2022-08-23T09:41:27.895Z,98025.00
2022-08-23T09:45:35.379Z,98027.00
2022-08-23T09:49:35.961Z,98014.00
2022-08-23T09:53:41.107Z,98012.00
2022-08-23T09:57:42.623Z,98014.00
2022-08-23T10:01:47.033Z,98010.00
2022-08-23T10:05:55.154Z,98007.00
2022-08-23T10:10:16.664Z,98010.00
2022-08-23T10:14:20.728Z,98007.00
2022-08-23T10:18:44.347Z,98002.00
2022-08-23T10:22:58.416Z,97973.00
2022-08-23T10:27:34.411Z,98011.00
2022-08-23T10:31:42.377Z,98008.00
2022-08-23T10:36:02.263Z,98004.00
2022-08-23T10:40:16.896Z,98006.00
2022-08-23T10:44:25.291Z,98002.00
2022-08-23T10:48:32.995Z,98013.00
2022-08-23T10:52:40.853Z,97988.00
2022-08-23T10:56:50.780Z,97995.00
2022-08-23T11:00:45.540Z,97993.00
2022-08-23T11:05:08.721Z,97990.00
2022-08-23T11:09:16.719Z,97987.00
2022-08-23T11:13:21.562Z,98001.00
2022-08-23T11:17:26.459Z,97992.00
2022-08-23T11:21:32.880Z,97978.00
2022-08-23T11:25:37.709Z,98014.00
2022-08-23T11:29:41.396Z,97988.00
2022-08-23T11:34:08.490Z,97986.00
2022-08-23T11:38:10.819Z,97984.00
2022-08-23T11:42:11.897Z,97981.00
2022-08-23T11:46:30.519Z,97983.00
2022-08-23T11:50:41.437Z,97975.00
2022-08-23T11:55:04.695Z,97975.00
2022-08-23T11:59:28.466Z,97974.00
2022-08-23T12:04:00.977Z,97964.00
2022-08-23T12:08:06.741Z,97978.00
2022-08-23T12:12:26.485Z,97976.00
2022-08-23T12:16:31.866Z,97971.00
2022-08-23T12:20:33.816Z,97962.00
2022-08-23T12:24:49.776Z,97968.00
2022-08-23T12:28:54.444Z,97958.00
2022-08-23T12:33:17.004Z,97968.00
2022-08-23T12:37:46.184Z,97967.00
2022-08-23T12:42:10.669Z,97964.00
2022-08-23T12:46:13.837Z,97961.00
2022-08-23T12:50:21.773Z,97964.00
2022-08-23T12:54:34.427Z,97966.00
2022-08-23T12:58:38.962Z,97966.00
2022-08-23T13:02:43.847Z,97965.00
2022-08-23T13:06:49.577Z,97962.00
2022-08-23T13:10:51.957Z,97961.00
2022-08-23T13:14:54.116Z,97965.00
2022-08-23T13:18:58.067Z,97943.00
2022-08-23T13:23:25.837Z,97958.00
2022-08-23T13:27:36.438Z,97950.00
2022-08-23T13:31:55.642Z,97959.00
2022-08-23T13:36:18.784Z,97951.00
2022-08-23T13:40:28.243Z,97948.00
2022-08-23T13:44:31.682Z,97957.00
2022-08-23T13:48:33.962Z,97953.00
2022-08-23T13:53:03.157Z,97944.00
2022-08-23T13:56:51.946Z,97939.00
2022-08-23T14:00:55.193Z,97943.00
2022-08-23T14:04:56.530Z,97944.00
2022-08-23T14:08:57.733Z,97944.00
2022-08-23T14:13:01.003Z,97947.00
2022-08-23T14:17:03.553Z,97945.00
2022-08-23T14:21:05.031Z,97940.00
2022-08-23T14:25:07.551Z,97942.00
2022-08-23T14:29:08.577Z,97936.00
2022-08-23T14:33:11.499Z,97939.00
2022-08-23T14:41:20.554Z,97941.00
2022-08-23T14:45:21.675Z,97946.00
2022-08-23T14:49:22.865Z,97935.00
2022-08-23T14:53:27.301Z,97937.00
2022-08-23T14:57:28.385Z,97936.00
2022-08-23T15:01:30.157Z,97939.00
2022-08-23T15:05:31.930Z,97942.00
2022-08-23T15:09:33.522Z,97941.00
2022-08-23T15:13:41.556Z,97936.00
2022-08-23T15:17:51.907Z,97930.00
2022-08-23T15:21:52.955Z,97940.00
2022-08-23T15:25:54.881Z,97932.00
2022-08-23T15:29:55.973Z,97934.00
2022-08-23T15:33:57.131Z,97924.00
2022-08-23T15:37:58.579Z,97925.00
2022-08-23T15:41:59.551Z,97921.00
2022-08-23T15:46:07.638Z,97917.00
2022-08-23T15:50:09.662Z,97828.00
2022-08-23T15:54:10.842Z,97918.00
2022-08-23T15:58:20.157Z,97917.00
2022-08-23T16:02:21.290Z,97924.00
2022-08-23T16:06:22.336Z,97920.00
2022-08-23T16:10:23.579Z,97920.00
2022-08-23T16:14:25.281Z,97923.00
2022-08-23T16:18:27.188Z,97922.00
2022-08-23T16:22:28.391Z,97922.00
2022-08-23T16:26:34.568Z,97923.00
2022-08-23T16:30:36.407Z,97924.00
2022-08-23T16:34:37.424Z,97926.00
2022-08-23T16:38:38.519Z,97925.00
2022-08-23T16:42:40.633Z,97922.00
2022-08-23T16:46:43.246Z,97924.00
2022-08-23T16:50:45.061Z,97923.00
2022-08-23T16:54:46.219Z,97926.00
2022-08-23T16:58:47.321Z,97926.00
2022-08-23T17:02:48.501Z,97927.00
2022-08-23T17:06:52.955Z,97935.00
2022-08-23T17:10:53.980Z,97929.00
2022-08-23T17:14:56.700Z,97935.00
2022-08-23T17:18:57.927Z,97938.00
2022-08-23T17:22:59.171Z,97946.00
2022-08-23T17:27:00.348Z,97945.00
2022-08-23T17:31:01.557Z,97943.00
2022-08-23T17:35:03.070Z,97950.00
2022-08-23T17:39:07.467Z,97951.00
2022-08-23T17:43:08.944Z,97948.00
2022-08-23T17:47:14.920Z,97960.00
2022-08-23T17:51:16.062Z,97959.00
2022-08-23T17:55:18.899Z,97956.00
2022-08-23T17:59:21.213Z,97961.00
2022-08-23T18:03:22.244Z,97959.00
2022-08-23T18:07:23.694Z,97967.00
2022-08-23T18:11:25.323Z,97911.00
2022-08-23T18:15:28.483Z,97971.00
2022-08-23T18:19:29.719Z,97973.00
2022-08-23T18:23:30.724Z,97979.00
2022-08-23T18:27:50.362Z,97982.00
2022-08-23T18:31:51.453Z,97989.00
2022-08-23T18:35:52.752Z,97993.00
2022-08-23T18:39:53.939Z,98000.00
2022-08-23T18:43:55.020Z,98012.00
2022-08-23T18:47:56.245Z,98005.00
2022-08-23T18:51:57.422Z,98003.00
2022-08-23T18:55:58.506Z,98008.00
2022-08-23T18:59:59.800Z,98011.00
2022-08-23T19:04:03.373Z,98024.00
2022-08-23T19:08:05.084Z,98022.00
2022-08-23T19:12:07.153Z,98026.00
2022-08-23T19:16:12.609Z,98024.00
2022-08-23T19:20:15.488Z,98031.00
2022-08-23T19:24:16.581Z,98036.00
2022-08-23T19:28:19.320Z,98045.00
2022-08-23T19:32:20.831Z,98034.00
2022-08-23T19:36:44.714Z,98039.00
2022-08-23T19:40:25.734Z,98045.00
2022-08-23T19:44:27.473Z,98040.00
2022-08-23T19:48:28.936Z,98045.00
2022-08-23T19:52:30.107Z,98044.00
2022-08-23T19:56:46.021Z,98041.00
2022-08-23T20:00:47.355Z,98048.00
2022-08-23T20:04:48.465Z,98041.00
2022-08-23T20:08:49.530Z,98051.00
2022-08-23T20:12:50.699Z,98057.00
2022-08-23T20:16:53.855Z,98062.00
2022-08-23T20:20:54.933Z,98068.00
2022-08-23T20:24:56.018Z,98073.00
2022-08-23T20:28:59.685Z,98072.00
2022-08-23T20:33:01.805Z,98067.00
2022-08-23T20:37:04.524Z,98066.00
2022-08-23T20:41:06.480Z,98070.00
2022-08-23T20:45:09.064Z,98065.00
2022-08-23T20:49:10.967Z,98061.00
2022-08-23T20:53:12.107Z,98066.00
2022-08-23T20:57:13.392Z,98069.00
2022-08-23T21:01:15.919Z,98072.00
2022-08-23T21:05:17.376Z,98075.00
2022-08-23T21:09:22.902Z,98074.00
2022-08-23T21:13:26.154Z,98079.00
2022-08-23T21:17:27.406Z,98077.00
2022-08-23T21:21:28.796Z,98075.00
2022-08-23T21:25:29.850Z,98074.00
2022-08-23T21:29:30.746Z,98080.00
2022-08-23T21:33:31.823Z,98079.00
2022-08-23T21:37:34.723Z,98083.00
2022-08-23T21:41:42.695Z,98084.00
2022-08-23T21:45:43.850Z,98086.00
2022-08-23T21:49:44.749Z,98090.00
2022-08-23T21:53:46.815Z,98100.00
2022-08-23T21:57:48.180Z,98089.00
2022-08-23T22:01:50.228Z,98083.00
2022-08-23T22:05:51.180Z,98085.00
2022-08-23T22:09:52.180Z,98093.00
2022-08-23T22:13:53.493Z,98098.00
2022-08-23T22:17:54.630Z,98096.00
2022-08-23T22:21:55.992Z,98090.00
2022-08-23T22:26:03.030Z,98095.00
2022-08-23T22:30:05.202Z,98108.00
2022-08-23T22:34:09.512Z,98102.00
2022-08-23T22:38:14.248Z,98098.00
2022-08-23T22:42:15.326Z,98102.00
2022-08-23T22:46:16.788Z,98094.00
2022-08-23T22:50:17.952Z,98094.00
2022-08-23T22:54:19.187Z,98096.00
2022-08-23T22:58:20.101Z,98096.00
2022-08-23T23:02:21.198Z,98097.00
2022-08-23T23:06:22.291Z,98102.00
2022-08-23T23:10:23.321Z,98105.00
2022-08-23T23:14:24.334Z,98104.00
2022-08-23T23:18:26.115Z,98106.00
2022-08-23T23:22:27.041Z,98111.00
2022-08-23T23:26:28.923Z,98111.00
2022-08-23T23:30:30.992Z,98118.00
2022-08-23T23:34:31.953Z,98111.00
2022-08-23T23:38:32.984Z,98124.00
2022-08-23T23:42:34.191Z,98120.00
2022-08-23T23:46:35.192Z,98117.00
2022-08-23T23:50:42.653Z,98119.00
2022-08-23T23:54:45.728Z,98120.00
2022-08-23T23:58:47.318Z,98122.00
